createdAt,value
2022-11-28T00:01:39.950Z,4.47
2022-11-28T00:04:07.635Z,5.17
2022-11-28T00:06:37.997Z,5.10
2022-11-28T00:09:05.786Z,5.50
2022-11-28T00:11:32.618Z,4.97
2022-11-28T00:13:59.489Z,5.50
2022-11-28T00:16:26.302Z,4.93
2022-11-28T00:18:54.917Z,4.53
2022-11-28T00:21:21.951Z,5.30
2022-11-28T00:23:49.291Z,5.00
2022-11-28T00:26:20.923Z,4.53
2022-11-28T00:28:48.159Z,4.80
2022-11-28T00:31:20.242Z,5.00
2022-11-28T00:33:47.516Z,5.47
2022-11-28T00:36:15.281Z,4.20
2022-11-28T00:38:42.491Z,4.83
2022-11-28T00:41:14.820Z,5.13
2022-11-28T00:43:42.936Z,4.90
2022-11-28T00:46:10.181Z,4.87
2022-11-28T00:48:37.237Z,5.17
2022-11-28T00:51:13.104Z,4.40
2022-11-28T00:53:42.444Z,4.93
2022-11-28T00:56:11.244Z,4.97
2022-11-28T00:58:38.690Z,5.43
2022-11-28T01:01:11.203Z,5.33
2022-11-28T01:03:38.637Z,4.60
2022-11-28T01:06:06.126Z,5.33
2022-11-28T01:08:33.072Z,5.10
2022-11-28T01:11:00.671Z,5.00
2022-11-28T01:13:27.716Z,5.50
2022-11-28T01:15:55.939Z,5.30
2022-11-28T01:18:22.711Z,5.20
2022-11-28T01:20:49.419Z,5.27
2022-11-28T01:23:18.505Z,5.37
2022-11-28T01:25:45.242Z,5.47
2022-11-28T01:28:11.944Z,5.13
2022-11-28T01:30:38.680Z,4.83
2022-11-28T01:33:05.928Z,5.30
2022-11-28T01:35:33.078Z,5.27
2022-11-28T01:37:59.782Z,4.80
2022-11-28T01:40:26.667Z,5.23
2022-11-28T01:42:53.346Z,4.90
2022-11-28T01:45:30.109Z,4.83
2022-11-28T01:48:00.055Z,4.30
2022-11-28T01:50:28.504Z,5.10
2022-11-28T01:53:00.189Z,4.90
2022-11-28T01:55:30.316Z,5.30
2022-11-28T01:57:57.569Z,4.60
2022-11-28T02:00:24.416Z,5.17
2022-11-28T02:02:56.909Z,5.63
2022-11-28T02:05:23.615Z,5.90
2022-11-28T02:07:51.558Z,5.20
2022-11-28T02:10:31.935Z,4.70
2022-11-28T02:13:08.420Z,5.23
2022-11-28T02:16:11.486Z,5.40
2022-11-28T02:18:50.682Z,5.20
2022-11-28T02:21:44.028Z,5.40
2022-11-28T02:24:19.699Z,5.70
2022-11-28T02:27:11.411Z,5.47
2022-11-28T02:29:47.411Z,4.73
2022-11-28T02:32:39.397Z,4.90
2022-11-28T02:35:34.062Z,5.07
2022-11-28T02:38:01.185Z,5.87
2022-11-28T02:40:32.185Z,6.20
2022-11-28T02:43:24.051Z,6.00
2022-11-28T02:46:28.420Z,6.90
2022-11-28T02:49:05.485Z,5.47
2022-11-28T02:51:40.773Z,6.67
2022-11-28T02:54:11.183Z,5.70
2022-11-28T02:56:38.060Z,6.00
2022-11-28T02:59:18.749Z,5.80
2022-11-28T03:01:45.514Z,6.40
2022-11-28T03:04:33.874Z,6.20
2022-11-28T03:07:16.369Z,4.90
2022-11-28T03:09:56.853Z,5.20
2022-11-28T03:12:51.610Z,6.67
2022-11-28T03:15:23.920Z,6.57
2022-11-28T03:17:53.406Z,6.13
2022-11-28T03:20:51.774Z,5.40
2022-11-28T03:23:28.475Z,5.50
2022-11-28T03:26:00.621Z,6.30
2022-11-28T03:28:49.142Z,5.80
2022-11-28T03:31:27.927Z,6.13
2022-11-28T03:33:58.391Z,6.00
2022-11-28T03:36:36.137Z,6.47
2022-11-28T03:39:08.897Z,5.30
2022-11-28T03:41:47.286Z,5.97
2022-11-28T03:44:21.035Z,6.80
2022-11-28T03:46:50.422Z,5.83
2022-11-28T03:49:25.823Z,6.30
2022-11-28T03:52:03.074Z,5.60
2022-11-28T03:54:40.465Z,5.50
2022-11-28T03:57:18.074Z,5.60
2022-11-28T03:59:49.041Z,5.80
2022-11-28T04:02:34.532Z,6.40
2022-11-28T04:05:24.655Z,6.23
2022-11-28T04:07:58.402Z,6.07
2022-11-28T04:10:43.644Z,6.10
2022-11-28T04:13:45.830Z,6.10
2022-11-28T04:16:28.768Z,5.80
2022-11-28T04:19:01.650Z,6.23
2022-11-28T04:21:43.355Z,6.67
2022-11-28T04:24:16.034Z,7.20
2022-11-28T04:26:48.249Z,7.17
2022-11-28T04:29:20.639Z,6.83
2022-11-28T04:31:50.656Z,6.80
2022-11-28T04:34:20.547Z,6.27
2022-11-28T04:36:49.285Z,6.70
2022-11-28T04:39:20.141Z,6.60
2022-11-28T04:41:52.613Z,6.90
2022-11-28T04:44:32.276Z,6.90
2022-11-28T04:46:59.460Z,6.07
2022-11-28T04:49:28.332Z,7.17
2022-11-28T04:52:18.714Z,5.80
2022-11-28T04:55:42.923Z,7.30
2022-11-28T04:58:13.216Z,7.00
2022-11-28T05:00:41.263Z,6.73
2022-11-28T05:03:09.465Z,6.90
2022-11-28T05:05:45.494Z,6.00
2022-11-28T05:08:12.429Z,6.77
2022-11-28T05:10:39.596Z,6.40
2022-11-28T05:13:06.349Z,6.57
2022-11-28T05:15:33.308Z,6.33
2022-11-28T05:18:00.045Z,6.13
2022-11-28T05:20:27.021Z,7.53
2022-11-28T05:22:53.794Z,6.17
2022-11-28T05:25:20.935Z,6.83
2022-11-28T05:27:48.180Z,6.50
2022-11-28T05:30:15.115Z,6.43
2022-11-28T05:32:42.172Z,6.30
2022-11-28T05:35:09.476Z,7.07
2022-11-28T05:37:36.790Z,6.37
2022-11-28T05:40:04.090Z,7.27
2022-11-28T05:42:35.089Z,7.47
2022-11-28T05:45:02.409Z,6.50
2022-11-28T05:47:33.200Z,7.77
2022-11-28T05:50:00.032Z,7.33
2022-11-28T05:52:29.615Z,7.40
2022-11-28T05:54:56.440Z,6.57
2022-11-28T05:57:23.109Z,7.13
2022-11-28T05:59:49.815Z,6.77
2022-11-28T06:02:16.646Z,7.70
2022-11-28T06:04:43.533Z,7.10
2022-11-28T06:07:10.320Z,7.87
2022-11-28T06:09:37.069Z,7.40
2022-11-28T06:12:03.896Z,7.20
2022-11-28T06:14:30.610Z,7.70
2022-11-28T06:16:57.425Z,7.47
2022-11-28T06:19:24.142Z,7.20
2022-11-28T06:21:51.026Z,8.17
2022-11-28T06:24:17.775Z,8.10
2022-11-28T06:26:44.520Z,9.07
2022-11-28T06:29:11.219Z,8.17
2022-11-28T06:31:37.993Z,7.73
2022-11-28T06:34:04.843Z,8.57
2022-11-28T06:36:31.603Z,10.67
2022-11-28T06:38:58.407Z,9.80
2022-11-28T06:41:25.190Z,10.30
2022-11-28T06:43:51.975Z,10.23
2022-11-28T06:46:21.160Z,8.20
2022-11-28T06:48:49.169Z,8.30
2022-11-28T06:51:17.117Z,7.87
2022-11-28T06:53:43.856Z,7.53
2022-11-28T06:56:17.627Z,8.00
2022-11-28T06:58:45.640Z,8.13
2022-11-28T07:01:17.437Z,7.90
2022-11-28T07:03:44.732Z,7.87
2022-11-28T07:06:12.383Z,7.90
2022-11-28T07:08:39.702Z,8.67
2022-11-28T07:11:14.344Z,7.90
2022-11-28T07:13:41.906Z,9.27
2022-11-28T07:16:13.072Z,8.67
2022-11-28T07:18:39.820Z,8.13
2022-11-28T07:21:06.647Z,8.80
2022-11-28T07:23:33.456Z,7.97
2022-11-28T07:26:01.515Z,8.53
2022-11-28T07:28:29.591Z,9.17
2022-11-28T07:31:03.532Z,8.60
2022-11-28T07:33:30.441Z,9.00
2022-11-28T07:36:02.154Z,9.53
2022-11-28T07:38:28.939Z,9.30
2022-11-28T07:41:01.940Z,10.03
2022-11-28T07:43:28.649Z,8.37
2022-11-28T07:46:01.008Z,8.87
2022-11-28T07:48:28.194Z,8.77
2022-11-28T07:50:54.994Z,8.40
2022-11-28T07:53:22.139Z,8.60
2022-11-28T07:55:48.891Z,8.40
2022-11-28T07:58:15.613Z,9.10
2022-11-28T08:00:42.405Z,9.90
2022-11-28T08:03:09.373Z,9.60
2022-11-28T08:05:36.107Z,9.60
2022-11-28T08:08:03.011Z,9.00
2022-11-28T08:10:29.859Z,9.90
2022-11-28T08:12:56.609Z,8.57
2022-11-28T08:15:23.354Z,8.77
2022-11-28T08:17:50.154Z,9.23
2022-11-28T08:20:16.935Z,8.23
2022-11-28T08:22:43.719Z,9.30
2022-11-28T08:25:10.444Z,8.93
2022-11-28T08:27:37.204Z,8.80
2022-11-28T08:30:04.326Z,9.73
2022-11-28T08:32:31.660Z,9.40
2022-11-28T08:34:58.437Z,9.40
2022-11-28T08:37:25.218Z,8.77
2022-11-28T08:39:51.929Z,8.80
2022-11-28T08:42:18.642Z,8.30
2022-11-28T08:44:45.349Z,9.17
2022-11-28T08:47:12.077Z,10.10
2022-11-28T08:49:39.420Z,9.40
2022-11-28T08:52:06.405Z,8.03
2022-11-28T08:54:33.241Z,9.40
2022-11-28T08:57:01.385Z,10.10
2022-11-28T08:59:28.370Z,9.00
2022-11-28T09:01:55.388Z,9.63
2022-11-28T09:04:23.720Z,10.13
2022-11-28T09:06:51.129Z,9.90
2022-11-28T09:09:18.307Z,9.90
2022-11-28T09:11:45.694Z,9.57
2022-11-28T09:14:12.759Z,9.00
2022-11-28T09:16:40.221Z,9.63
2022-11-28T09:19:09.182Z,9.53
2022-11-28T09:21:36.108Z,9.23
2022-11-28T09:24:02.850Z,9.77
2022-11-28T09:26:30.050Z,9.73
2022-11-28T09:28:57.094Z,9.00
2022-11-28T09:31:23.963Z,9.60
2022-11-28T09:33:51.161Z,10.00
2022-11-28T09:36:20.443Z,10.43
2022-11-28T09:38:47.531Z,9.00
2022-11-28T09:41:37.208Z,9.87
2022-11-28T09:44:42.982Z,10.10
2022-11-28T09:47:19.422Z,10.60
2022-11-28T09:49:55.714Z,10.27
2022-11-28T09:52:31.992Z,11.63
2022-11-28T09:55:04.365Z,10.83
2022-11-28T09:57:49.659Z,9.77
2022-11-28T10:00:32.589Z,10.70
2022-11-28T10:03:17.375Z,11.00
2022-11-28T10:05:48.953Z,10.60
2022-11-28T10:08:30.712Z,9.97
2022-11-28T10:11:38.682Z,9.90
2022-11-28T10:14:38.801Z,9.70
2022-11-28T10:17:30.339Z,10.40
2022-11-28T10:20:19.943Z,10.90
2022-11-28T10:22:54.505Z,10.40
2022-11-28T10:25:39.298Z,10.67
2022-11-28T10:28:11.600Z,10.43
2022-11-28T10:30:44.456Z,10.53
2022-11-28T10:33:29.012Z,11.10
2022-11-28T10:36:01.307Z,10.40
2022-11-28T10:38:31.208Z,10.37
2022-11-28T10:41:15.713Z,11.13
2022-11-28T10:43:57.568Z,11.30
2022-11-28T10:46:47.556Z,9.83
2022-11-28T10:49:24.133Z,10.20
2022-11-28T10:51:50.780Z,9.90
2022-11-28T10:54:33.218Z,10.87
2022-11-28T10:57:22.359Z,10.57
2022-11-28T11:00:12.207Z,10.27
2022-11-28T11:02:50.823Z,11.70
2022-11-28T11:05:35.044Z,11.37
2022-11-28T11:08:17.932Z,10.20
2022-11-28T11:10:50.687Z,10.90
2022-11-28T11:13:20.550Z,10.50
2022-11-28T11:16:01.117Z,9.97
2022-11-28T11:18:30.649Z,10.40
2022-11-28T11:21:18.921Z,10.63
2022-11-28T11:23:47.425Z,10.60
2022-11-28T11:26:33.025Z,10.63
2022-11-28T11:28:59.851Z,11.30
2022-11-28T11:31:40.880Z,11.40
2022-11-28T11:34:15.510Z,11.00
2022-11-28T11:36:42.597Z,11.03
2022-11-28T11:39:12.525Z,10.30
2022-11-28T11:41:44.586Z,11.60
2022-11-28T11:44:14.328Z,12.00
2022-11-28T11:46:55.435Z,9.83
2022-11-28T11:49:33.637Z,11.03
2022-11-28T11:52:16.464Z,10.73
2022-11-28T11:54:58.186Z,10.40
2022-11-28T11:57:34.754Z,9.90
2022-11-28T12:00:17.111Z,11.37
2022-11-28T12:02:54.821Z,10.80
2022-11-28T12:05:24.906Z,10.20
2022-11-28T12:08:05.302Z,11.10
2022-11-28T12:10:40.220Z,11.27
2022-11-28T12:13:35.675Z,10.83
2022-11-28T12:16:30.314Z,10.50
2022-11-28T12:19:34.012Z,9.50
2022-11-28T12:22:12.999Z,10.00
2022-11-28T12:24:39.671Z,11.00
2022-11-28T12:27:15.190Z,10.70
2022-11-28T12:30:14.367Z,10.20
2022-11-28T12:33:05.384Z,11.20
2022-11-28T12:35:42.996Z,10.43
2022-11-28T12:38:28.427Z,9.30
2022-11-28T12:41:32.141Z,10.63
2022-11-28T12:44:29.678Z,11.03
2022-11-28T12:47:15.425Z,11.90
2022-11-28T12:50:03.901Z,10.63
2022-11-28T12:53:11.568Z,10.90
2022-11-28T12:55:58.255Z,9.93
2022-11-28T12:58:33.679Z,10.20
2022-11-28T13:01:11.660Z,10.30
2022-11-28T13:03:51.190Z,11.17
2022-11-28T13:06:40.873Z,11.17
2022-11-28T13:09:25.199Z,11.70
2022-11-28T13:12:06.872Z,11.60
2022-11-28T13:14:54.969Z,12.10
2022-11-28T13:17:35.915Z,11.37
2022-11-28T13:20:18.773Z,11.60
2022-11-28T13:23:04.600Z,11.93
2022-11-28T13:25:37.921Z,11.53
2022-11-28T13:28:11.394Z,12.80
2022-11-28T13:30:46.799Z,12.53
2022-11-28T13:33:35.419Z,11.87
2022-11-28T13:36:04.159Z,12.93
2022-11-28T13:39:11.803Z,12.63
2022-11-28T13:44:53.304Z,11.17
2022-11-28T13:47:23.045Z,11.50
2022-11-28T13:49:49.963Z,11.30
2022-11-28T13:52:20.006Z,10.50
2022-11-28T13:54:54.346Z,11.13
2022-11-28T13:57:27.797Z,11.67
2022-11-28T13:59:57.004Z,11.80
2022-11-28T14:02:38.385Z,13.40
2022-11-28T14:05:14.789Z,12.30
2022-11-28T14:07:47.821Z,14.00
2022-11-28T14:10:42.436Z,15.37
2022-11-28T14:13:49.857Z,12.60
2022-11-28T14:16:50.014Z,14.73
2022-11-28T14:19:21.252Z,14.63
2022-11-28T14:21:56.699Z,14.13
2022-11-28T14:24:35.563Z,14.80
2022-11-28T14:27:05.282Z,12.63
2022-11-28T14:29:38.262Z,13.30
2022-11-28T14:32:28.933Z,12.63
2022-11-28T14:34:52.853Z,13.03
2022-11-28T14:37:19.577Z,12.77
2022-11-28T14:39:50.301Z,12.87
2022-11-28T14:42:43.999Z,12.80
2022-11-28T14:45:29.140Z,13.30
2022-11-28T14:48:15.922Z,12.70
2022-11-28T14:50:45.936Z,13.13
2022-11-28T14:53:34.529Z,12.57
2022-11-28T14:56:22.539Z,13.77
2022-11-28T14:58:51.324Z,13.23
2022-11-28T15:01:35.408Z,12.47
2022-11-28T15:04:19.983Z,13.40
2022-11-28T15:06:50.165Z,12.47
2022-11-28T15:09:37.995Z,12.40
2022-11-28T15:12:17.204Z,11.50
2022-11-28T15:14:47.292Z,12.13
2022-11-28T15:17:14.926Z,12.33
2022-11-28T15:19:48.219Z,12.40
2022-11-28T15:22:40.368Z,13.13
2022-11-28T15:25:29.467Z,13.77
2022-11-28T15:27:56.875Z,14.07
2022-11-28T15:30:26.577Z,15.57
2022-11-28T15:32:58.261Z,16.73
2022-11-28T15:35:25.344Z,14.60
2022-11-28T15:37:55.226Z,13.90
2022-11-28T15:40:33.595Z,12.70
2022-11-28T15:43:01.379Z,13.20
2022-11-28T15:45:37.900Z,12.30
2022-11-28T15:48:04.860Z,12.93
2022-11-28T15:50:33.799Z,12.50
2022-11-28T15:53:15.628Z,12.83
2022-11-28T15:55:42.780Z,14.27
2022-11-28T15:58:29.838Z,13.60
2022-11-28T16:01:04.956Z,13.83
2022-11-28T16:04:04.511Z,14.80
2022-11-28T16:06:35.074Z,14.03
2022-11-28T16:09:26.990Z,14.43
2022-11-28T16:11:54.494Z,13.53
2022-11-28T16:14:31.006Z,15.00
2022-11-28T16:17:00.750Z,17.23
2022-11-28T16:19:37.093Z,19.80
2022-11-28T16:22:11.973Z,17.37
2022-11-28T16:24:55.713Z,17.57
2022-11-28T16:27:40.061Z,18.57
2022-11-28T16:30:38.860Z,18.50
2022-11-28T16:33:33.610Z,17.70
2022-11-28T16:36:15.610Z,17.07
2022-11-28T16:38:43.843Z,20.40
2022-11-28T16:41:25.087Z,18.30
2022-11-28T16:43:59.192Z,18.20
2022-11-28T16:46:30.566Z,16.30
2022-11-28T16:48:58.735Z,15.70
2022-11-28T16:51:37.924Z,17.20
2022-11-28T16:54:31.010Z,17.50
2022-11-28T16:57:09.437Z,17.73
2022-11-28T16:59:36.380Z,16.07
2022-11-28T17:02:03.739Z,17.37
2022-11-28T17:04:31.440Z,16.67
2022-11-28T17:07:05.102Z,15.70
2022-11-28T17:09:33.863Z,16.10
2022-11-28T17:12:07.904Z,15.60
2022-11-28T17:14:34.807Z,16.90
2022-11-28T17:17:01.517Z,17.70
2022-11-28T17:19:28.264Z,15.93
2022-11-28T17:21:58.952Z,15.57
2022-11-28T17:24:33.413Z,16.97
2022-11-28T17:27:00.546Z,15.50
2022-11-28T17:29:28.584Z,16.43
2022-11-28T17:31:57.710Z,16.10
2022-11-28T17:34:27.250Z,16.70
2022-11-28T17:36:54.039Z,17.33
2022-11-28T17:39:21.037Z,19.20
2022-11-28T17:41:48.723Z,19.23
2022-11-28T17:44:22.500Z,18.83
2022-11-28T17:46:54.044Z,17.63
2022-11-28T17:49:21.414Z,17.60
2022-11-28T17:51:48.674Z,17.17
2022-11-28T17:54:17.878Z,18.13
2022-11-28T17:56:49.535Z,19.70
2022-11-28T17:59:18.002Z,17.50
2022-11-28T18:01:45.222Z,17.07
2022-11-28T18:04:12.652Z,17.50
2022-11-28T18:06:43.543Z,18.17
2022-11-28T18:09:12.391Z,19.73
2022-11-28T18:11:40.675Z,18.73
2022-11-28T18:14:07.522Z,18.50
2022-11-28T18:16:36.268Z,19.37
2022-11-28T18:19:04.223Z,19.03
2022-11-28T18:21:31.630Z,19.77
2022-11-28T18:23:58.516Z,18.27
2022-11-28T18:26:26.161Z,20.57
2022-11-28T18:28:54.253Z,19.70
2022-11-28T18:31:26.656Z,21.50
2022-11-28T18:33:58.761Z,19.10
2022-11-28T18:36:29.417Z,19.30
2022-11-28T18:39:02.368Z,20.80
2022-11-28T18:41:29.976Z,22.60
2022-11-28T18:43:58.496Z,21.23
2022-11-28T18:46:26.046Z,20.63
2022-11-28T18:48:53.291Z,20.63
2022-11-28T18:51:22.108Z,21.17
2022-11-28T18:53:50.353Z,20.77
2022-11-28T18:56:17.958Z,20.43
2022-11-28T18:58:47.983Z,18.10
2022-11-28T19:01:28.650Z,16.20
2022-11-28T19:03:58.215Z,15.93
2022-11-28T19:06:25.487Z,17.93
2022-11-28T19:08:57.821Z,16.73
2022-11-28T19:11:26.640Z,14.80
2022-11-28T19:13:55.036Z,15.93
2022-11-28T19:16:27.632Z,18.13
2022-11-28T19:18:55.540Z,19.40
2022-11-28T19:21:25.169Z,19.97
2022-11-28T19:23:52.259Z,20.10
2022-11-28T19:26:22.046Z,21.00
2022-11-28T19:28:49.449Z,19.77
2022-11-28T19:31:23.482Z,20.63
2022-11-28T19:34:07.107Z,19.03
2022-11-28T19:36:37.631Z,19.20
2022-11-28T19:39:05.161Z,19.50
2022-11-28T19:41:32.342Z,20.00
2022-11-28T19:43:59.594Z,22.30
2022-11-28T19:46:31.889Z,19.63
2022-11-28T19:49:02.069Z,17.87
2022-11-28T19:51:28.889Z,17.73
2022-11-28T19:53:59.952Z,19.17
2022-11-28T19:56:30.146Z,18.20
2022-11-28T19:58:56.937Z,17.10
2022-11-28T20:01:24.728Z,18.40
2022-11-28T20:03:52.555Z,19.43
2022-11-28T20:06:28.183Z,18.40
2022-11-28T20:08:58.592Z,18.33
2022-11-28T20:11:31.190Z,19.17
2022-11-28T20:14:00.700Z,17.87
2022-11-28T20:16:29.115Z,17.67
2022-11-28T20:18:56.071Z,18.27
2022-11-28T20:21:22.887Z,17.50
2022-11-28T20:23:52.198Z,17.70
2022-11-28T20:26:21.234Z,20.13
2022-11-28T20:28:48.921Z,19.80
2022-11-28T20:31:33.758Z,19.60
2022-11-28T20:34:01.783Z,20.77
2022-11-28T20:36:30.812Z,19.53
2022-11-28T20:38:58.178Z,20.07
2022-11-28T20:41:26.544Z,21.80
2022-11-28T20:43:53.738Z,21.87
2022-11-28T20:46:32.759Z,20.73
2022-11-28T20:49:04.823Z,20.50
2022-11-28T20:51:33.511Z,20.67
2022-11-28T20:54:01.487Z,22.03
2022-11-28T20:56:30.437Z,20.90
2022-11-28T20:59:02.215Z,20.70
2022-11-28T21:01:35.414Z,19.97
2022-11-28T21:04:03.923Z,19.97
2022-11-28T21:06:30.743Z,20.90
2022-11-28T21:08:57.877Z,20.77
2022-11-28T21:11:55.157Z,21.33
2022-11-28T21:14:15.156Z,20.47
2022-11-28T21:16:42.445Z,20.70
2022-11-28T21:19:09.499Z,22.70
2022-11-28T21:21:39.514Z,21.43
2022-11-28T21:24:11.196Z,22.83
2022-11-28T21:26:42.404Z,22.00
2022-11-28T21:29:12.933Z,21.90
2022-11-28T21:31:42.826Z,20.40
2022-11-28T21:34:14.374Z,20.33
2022-11-28T21:36:42.077Z,19.37
2022-11-28T21:39:16.082Z,21.70
2022-11-28T21:41:42.853Z,22.00
2022-11-28T21:44:10.040Z,21.60
2022-11-28T21:46:36.868Z,21.10
2022-11-28T21:49:03.722Z,22.30
2022-11-28T21:51:30.485Z,22.73
2022-11-28T21:54:00.233Z,23.20
2022-11-28T21:56:27.195Z,24.10
2022-11-28T21:58:54.217Z,26.50
2022-11-28T22:01:21.421Z,23.37
2022-11-28T22:03:48.992Z,23.77
2022-11-28T22:06:19.729Z,24.13
2022-11-28T22:08:48.556Z,23.20
2022-11-28T22:11:16.452Z,22.63
2022-11-28T22:13:45.870Z,22.77
2022-11-28T22:16:17.407Z,22.90
2022-11-28T22:18:46.584Z,23.90
2022-11-28T22:21:49.782Z,23.27
2022-11-28T22:24:02.414Z,22.70
2022-11-28T22:26:29.177Z,24.00
2022-11-28T22:28:55.951Z,23.43
2022-11-28T22:31:22.784Z,22.50
2022-11-28T22:33:50.547Z,22.90
2022-11-28T22:36:20.095Z,24.27
2022-11-28T22:38:48.223Z,23.73
2022-11-28T22:41:26.422Z,23.03
2022-11-28T22:43:56.556Z,23.10
2022-11-28T22:46:23.487Z,21.67
2022-11-28T22:48:51.700Z,23.10
2022-11-28T22:51:23.501Z,21.77
2022-11-28T22:53:55.118Z,23.67
2022-11-28T22:56:22.169Z,22.80
2022-11-28T22:58:49.343Z,21.87
2022-11-28T23:01:18.890Z,23.90
2022-11-28T23:03:46.998Z,23.20
2022-11-28T23:06:22.426Z,23.57
2022-11-28T23:08:49.559Z,22.60
2022-11-28T23:11:19.385Z,22.53
2022-11-28T23:13:49.828Z,23.33
2022-11-28T23:16:39.724Z,22.50
2022-11-28T23:19:10.485Z,21.63
2022-11-28T23:21:39.464Z,22.53
2022-11-28T23:24:07.788Z,24.47
2022-11-28T23:26:35.281Z,21.03
2022-11-28T23:29:03.235Z,22.40
2022-11-28T23:31:32.589Z,22.23
2022-11-28T23:34:00.797Z,21.33
2022-11-28T23:36:36.977Z,21.03
2022-11-28T23:39:11.045Z,21.70
2022-11-28T23:41:37.859Z,20.73
2022-11-28T23:44:04.916Z,21.40
2022-11-28T23:46:31.763Z,21.83
2022-11-28T23:48:58.536Z,21.00
2022-11-28T23:51:26.395Z,20.63
2022-11-28T23:53:53.847Z,21.13
2022-11-28T23:56:26.214Z,21.93
2022-11-28T23:58:54.455Z,21.83
